Time;durP1;ratioP1;P1;durP2;ratioP2;P2;SDS_P1;SDS_P2;PMS_P1;PMS_P2;Temp;Humidity;BMP_temperature;BMP_pressure;BME280_temperature;BME280_humidity;BME280_pressure;Samples;Min_cycle;Max_cycle;Signal;HPM_P1;HPM_P2
2022/08/27 00:02:17;;;;;;;13.85;4.97;;;;;;;18.86;53.70;97757.52;1740656;81;21038;-60
2022/08/27 00:04:44;;;;;;;11.93;4.08;;;;;;;18.84;53.68;97752.98;1749522;81;22123;-60
2022/08/27 00:07:12;;;;;;;12.03;4.22;;;;;;;18.81;53.65;97749.64;1743739;81;21749;-60
2022/08/27 00:09:39;;;;;;;9.35;4.08;;;;;;;18.80;54.21;97749.41;1740634;82;20936;-60
2022/08/27 00:12:07;;;;;;;15.75;4.10;;;;;;;18.78;54.32;97750.33;1751832;81;21119;-60
2022/08/27 00:14:36;;;;;;;14.25;3.98;;;;;;;18.76;53.95;97751.81;1750519;81;20931;-60
2022/08/27 00:17:04;;;;;;;8.40;4.40;;;;;;;18.72;53.86;97746.31;1743370;81;20913;-63
2022/08/27 00:19:33;;;;;;;15.55;4.08;;;;;;;18.70;53.75;97751.27;1740598;81;21494;-62
2022/08/27 00:21:59;;;;;;;10.82;3.90;;;;;;;18.70;53.81;97748.56;1747929;81;20991;-61
2022/08/27 00:24:26;;;;;;;6.85;3.77;;;;;;;18.68;53.81;97750.84;1747987;81;21229;-61
2022/08/27 00:26:52;;;;;;;10.45;3.70;;;;;;;18.66;53.86;97744.97;1754530;81;21030;-61
2022/08/27 00:29:19;;;;;;;8.68;3.67;;;;;;;18.63;53.65;97751.09;1752844;81;20979;-61
2022/08/27 00:31:46;;;;;;;12.20;3.55;;;;;;;18.62;53.44;97746.81;1738182;82;20971;-61
2022/08/27 00:34:12;;;;;;;9.20;3.98;;;;;;;18.61;53.81;97744.43;1743643;81;21030;-61
2022/08/27 00:36:39;;;;;;;7.28;3.92;;;;;;;18.57;54.09;97749.78;1752975;80;21572;-62
2022/08/27 00:39:05;;;;;;;9.05;3.70;;;;;;;18.53;53.86;97751.61;1745661;81;21010;-61
2022/08/27 00:41:34;;;;;;;13.62;4.05;;;;;;;18.49;53.94;97745.29;1743805;81;32554;-61
2022/08/27 00:44:00;;;;;;;10.55;3.65;;;;;;;18.47;54.05;97742.14;1744205;81;20901;-61
2022/08/27 00:46:49;;;;;;;11.45;3.70;;;;;;;18.47;53.86;97746.77;1745990;81;20994;-62
2022/08/27 00:49:26;;;;;;;11.50;3.75;;;;;;;18.45;53.76;97748.45;1744116;81;21088;-60
2022/08/27 00:51:58;;;;;;;8.03;3.58;;;;;;;18.44;53.77;97748.25;1747565;81;20907;-61
2022/08/27 00:54:25;;;;;;;13.08;4.05;;;;;;;18.41;53.60;97740.80;1742213;82;20915;-61
2022/08/27 00:56:51;;;;;;;7.42;3.72;;;;;;;18.41;53.47;97748.94;1752253;81;20891;-61
2022/08/27 00:59:21;;;;;;;13.55;3.87;;;;;;;18.40;54.35;97755.48;1748406;81;21062;-61
2022/08/27 01:04:33;;;;;;;13.62;4.15;;;;;;;18.26;54.95;97751.81;1673552;83;21450;-60
2022/08/27 01:07:00;;;;;;;8.90;3.90;;;;;;;18.19;57.07;97752.98;1722153;82;20991;-61
2022/08/27 01:09:27;;;;;;;13.43;4.20;;;;;;;18.02;58.41;97755.97;1744364;81;20939;-60
2022/08/27 01:11:54;;;;;;;11.73;4.45;;;;;;;17.83;59.15;97753.67;1749353;81;20993;-60
2022/08/27 01:14:21;;;;;;;9.70;4.37;;;;;;;17.65;59.83;97753.92;1746594;81;21081;-61
2022/08/27 01:16:51;;;;;;;13.32;4.55;;;;;;;17.48;60.51;97755.48;1751417;81;20964;-60
2022/08/27 01:19:29;;;;;;;15.28;4.75;;;;;;;17.31;61.19;97751.66;1751934;81;20968;-60
2022/08/27 01:22:05;;;;;;;11.43;4.47;;;;;;;17.17;61.90;97749.86;1746393;81;20996;-59
2022/08/27 01:24:39;;;;;;;6.78;4.05;;;;;;;17.07;62.25;97753.03;1735976;81;21075;-61
2022/08/27 01:27:08;;;;;;;11.10;4.07;;;;;;;16.99;62.93;97759.33;1746234;81;21244;-61
2022/08/27 01:29:36;;;;;;;10.88;4.35;;;;;;;16.89;63.16;97755.14;1749395;81;21011;-60
2022/08/27 01:32:10;;;;;;;12.43;4.50;;;;;;;16.89;63.68;97757.85;1722484;81;21100;-60
2022/08/27 01:34:37;;;;;;;10.48;4.17;;;;;;;16.84;64.11;97752.66;1736796;82;20905;-59
2022/08/27 01:37:05;;;;;;;7.40;4.45;;;;;;;16.79;64.88;97756.16;1749225;81;20987;-60
2022/08/27 01:39:34;;;;;;;9.60;4.05;;;;;;;16.63;65.50;97753.88;1747204;81;21128;-61
2022/08/27 01:42:18;;;;;;;10.20;3.95;;;;;;;16.47;65.86;97752.87;1748472;81;20970;-61
2022/08/27 01:44:52;;;;;;;10.93;4.35;;;;;;;16.39;66.40;97755.92;1737145;81;20892;-61
2022/08/27 01:47:20;;;;;;;11.55;4.40;;;;;;;16.32;66.76;97752.38;1745104;81;21026;-60
2022/08/27 01:49:46;;;;;;;7.45;4.22;;;;;;;16.30;67.23;97746.53;1750391;81;21434;-60
2022/08/27 01:52:14;;;;;;;10.23;3.55;;;;;;;16.32;66.58;97746.98;1748048;81;21165;-61
2022/08/27 01:54:41;;;;;;;8.03;3.52;;;;;;;16.37;65.03;97741.38;1744173;81;21042;-61
2022/08/27 01:57:08;;;;;;;11.68;3.90;;;;;;;16.54;63.66;97747.75;1746842;81;21030;-61
2022/08/27 01:59:37;;;;;;;9.10;3.47;;;;;;;16.69;63.46;97743.06;1747516;82;21034;-61
2022/08/27 02:02:04;;;;;;;8.15;3.45;;;;;;;16.78;63.38;97743.20;1752562;82;21445;-61
2022/08/27 02:04:31;;;;;;;11.80;3.33;;;;;;;16.85;61.60;97738.58;1744922;81;22007;-61
2022/08/27 02:06:57;;;;;;;10.78;3.40;;;;;;;16.94;61.12;97733.84;1742322;82;20884;-62
2022/08/27 02:09:25;;;;;;;10.70;3.58;;;;;;;17.01;60.96;97734.88;1741851;81;20897;-61
2022/08/27 02:11:52;;;;;;;7.15;3.50;;;;;;;17.08;60.22;97738.36;1747356;81;20912;-60
2022/08/27 02:14:19;;;;;;;13.90;3.77;;;;;;;17.11;59.79;97734.98;1751767;81;20943;-61
2022/08/27 02:16:46;;;;;;;11.05;3.37;;;;;;;17.16;59.25;97736.13;1750217;81;21253;-61
2022/08/27 02:19:12;;;;;;;11.25;3.40;;;;;;;17.20;58.56;97732.95;1709508;83;21399;-61
2022/08/27 02:21:39;;;;;;;9.43;3.27;;;;;;;17.26;58.26;97732.97;1709678;83;20967;-61
2022/08/27 02:24:06;;;;;;;7.37;3.12;;;;;;;17.29;57.62;97733.62;1690806;83;21026;-61
2022/08/27 02:26:32;;;;;;;9.70;3.17;;;;;;;17.33;57.03;97731.04;1687273;83;20944;-60
2022/08/27 02:28:59;;;;;;;10.70;3.20;;;;;;;17.34;57.32;97729.34;1695545;83;21242;-61
2022/08/27 02:31:25;;;;;;;9.63;3.20;;;;;;;17.35;57.17;97725.52;1690073;83;21416;-61
2022/08/27 02:33:52;;;;;;;6.33;3.15;;;;;;;17.35;56.36;97725.52;1681144;82;21071;-61
2022/08/27 02:36:18;;;;;;;8.95;3.15;;;;;;;17.36;57.36;97719.54;1690452;83;21002;-61
2022/08/27 02:38:45;;;;;;;6.12;2.90;;;;;;;17.34;58.06;97722.56;1691228;83;21015;-61
2022/08/27 02:41:13;;;;;;;7.00;3.10;;;;;;;17.29;57.74;97714.67;1693851;83;21213;-61
2022/08/27 02:43:40;;;;;;;8.55;3.00;;;;;;;17.26;57.87;97715.37;1683499;83;20971;-61
2022/08/27 02:46:06;;;;;;;9.40;3.47;;;;;;;17.21;58.72;97712.89;1696806;83;20904;-61
2022/08/27 02:48:36;;;;;;;7.37;3.30;;;;;;;17.13;60.19;97716.49;1701663;83;20958;-61
2022/08/27 02:51:04;;;;;;;9.85;3.20;;;;;;;17.02;60.64;97711.31;1707637;83;21380;-61
2022/08/27 02:53:32;;;;;;;5.87;3.12;;;;;;;16.96;61.20;97711.30;1695875;83;21209;-61
2022/08/27 02:55:58;;;;;;;12.15;3.80;;;;;;;16.88;61.83;97712.22;1711487;83;20987;-60
2022/08/27 02:58:25;;;;;;;10.15;3.10;;;;;;;16.81;61.85;97711.98;1695333;83;21000;-61
2022/08/27 03:00:51;;;;;;;8.10;3.02;;;;;;;16.76;62.07;97715.70;1690888;82;21019;-61
2022/08/27 03:03:18;;;;;;;7.90;3.65;;;;;;;16.73;62.06;97718.27;1696919;83;21042;-59
2022/08/27 03:05:45;;;;;;;9.20;2.90;;;;;;;16.72;61.87;97725.59;1696210;83;21128;-61
2022/08/27 03:08:11;;;;;;;9.15;2.92;;;;;;;16.71;61.86;97716.47;1747524;81;21707;-60
2022/08/27 03:10:38;;;;;;;8.08;2.98;;;;;;;16.67;61.72;97723.13;1754313;81;21478;-61
2022/08/27 03:13:05;;;;;;;6.25;3.12;;;;;;;16.65;61.27;97718.59;1749698;81;21055;-61
2022/08/27 03:15:32;;;;;;;8.98;3.40;;;;;;;16.67;61.07;97719.63;1746468;82;20966;-62
2022/08/27 03:20:46;;;;;;;12.23;3.92;;;;;;;16.67;61.37;97716.92;1752572;81;20982;-60
2022/08/27 03:23:13;;;;;;;15.10;4.00;;;;;;;16.64;61.84;97720.30;1741555;81;20951;-60
2022/08/27 03:25:44;;;;;;;18.35;4.12;;;;;;;16.61;62.13;97716.90;1744640;81;20868;-60
2022/08/27 03:28:14;;;;;;;14.35;3.15;;;;;;;16.54;61.75;97718.02;1746994;81;20944;-61
2022/08/27 03:30:41;;;;;;;11.65;2.95;;;;;;;16.52;61.71;97712.16;1750738;81;21077;-61
2022/08/27 03:33:07;;;;;;;14.03;3.85;;;;;;;16.52;61.82;97712.95;1747518;81;20884;-60
2022/08/27 03:35:34;;;;;;;9.85;3.72;;;;;;;16.54;60.99;97714.75;1747751;81;21073;-61
2022/08/27 03:38:01;;;;;;;7.67;3.45;;;;;;;16.58;60.64;97712.18;1736132;82;20995;-61
2022/08/27 03:40:27;;;;;;;16.12;4.28;;;;;;;16.62;60.18;97713.08;1749135;81;21423;-61
2022/08/27 03:42:54;;;;;;;10.95;3.90;;;;;;;16.68;60.17;97718.48;1749487;81;21217;-61
2022/08/27 03:45:21;;;;;;;5.25;3.20;;;;;;;16.70;59.93;97723.02;1747213;81;20896;-62
2022/08/27 03:47:49;;;;;;;12.55;3.92;;;;;;;16.71;59.64;97720.53;1747895;80;20884;-61
2022/08/27 03:50:16;;;;;;;17.40;3.60;;;;;;;16.74;59.32;97721.22;1750638;81;20876;-61
2022/08/27 03:52:42;;;;;;;12.05;3.22;;;;;;;16.77;58.73;97711.09;1754445;80;20979;-61
2022/08/27 03:55:09;;;;;;;12.82;3.90;;;;;;;16.80;58.68;97710.39;1752876;81;21118;-61
2022/08/27 03:57:36;;;;;;;11.10;3.70;;;;;;;16.82;58.68;97713.55;1748279;81;20903;-61
2022/08/27 04:00:07;;;;;;;9.15;3.65;;;;;;;16.84;58.82;97709.38;1744635;82;20994;-61
2022/08/27 04:02:36;;;;;;;7.78;3.45;;;;;;;16.85;59.07;97713.67;1742002;81;21452;-61
2022/08/27 04:05:04;;;;;;;8.50;3.77;;;;;;;16.87;58.77;97716.03;1752808;81;20983;-61
2022/08/27 04:07:32;;;;;;;12.88;3.60;;;;;;;16.88;58.91;97716.27;1752367;82;21078;-61
2022/08/27 04:09:58;;;;;;;11.80;3.70;;;;;;;16.91;59.17;97716.38;1721274;82;21003;-61
2022/08/27 04:12:25;;;;;;;11.60;3.85;;;;;;;16.94;58.83;97714.91;1748396;81;21384;-62
2022/08/27 04:14:52;;;;;;;7.85;3.45;;;;;;;16.97;58.69;97713.69;1739644;81;20988;-61
2022/08/27 04:17:19;;;;;;;11.85;3.45;;;;;;;16.99;58.57;97709.28;1745373;81;20995;-61
2022/08/27 04:19:46;;;;;;;6.40;3.77;;;;;;;17.04;58.62;97709.06;1750825;81;21239;-61
2022/08/27 04:22:13;;;;;;;11.40;3.20;;;;;;;17.06;58.52;97710.30;1750366;81;22400;-61
2022/08/27 04:24:40;;;;;;;8.23;3.58;;;;;;;17.09;58.66;97708.84;1751860;82;21038;-61
2022/08/27 04:27:07;;;;;;;7.55;3.67;;;;;;;17.12;58.92;97705.46;1737492;82;21035;-61
2022/08/27 04:29:33;;;;;;;10.20;3.87;;;;;;;17.15;58.63;97714.23;1745755;82;21478;-61
2022/08/27 04:32:00;;;;;;;9.90;3.62;;;;;;;17.18;58.58;97714.13;1752687;81;22012;-61
2022/08/27 04:34:27;;;;;;;9.95;3.62;;;;;;;17.21;58.40;97712.89;1743862;81;21451;-62
2022/08/27 04:36:56;;;;;;;7.10;3.75;;;;;;;17.24;58.70;97708.13;1741723;81;20932;-61
2022/08/27 04:39:25;;;;;;;13.65;3.92;;;;;;;17.27;58.77;97707.47;1748469;81;21013;-61
2022/08/27 04:41:54;;;;;;;11.90;3.80;;;;;;;17.33;58.79;97708.83;1752922;81;21478;-61
2022/08/27 04:44:21;;;;;;;10.15;3.92;;;;;;;17.36;58.89;97712.19;1741944;81;21210;-61
2022/08/27 04:46:49;;;;;;;12.03;4.10;;;;;;;17.40;58.84;97715.81;1747823;81;20971;-61
2022/08/27 04:49:16;;;;;;;9.65;3.90;;;;;;;17.44;59.08;97711.28;1743604;81;20933;-61
2022/08/27 04:51:43;;;;;;;7.60;3.58;;;;;;;17.48;59.47;97709.47;1738139;82;20971;-62
2022/08/27 04:54:09;;;;;;;9.15;3.90;;;;;;;17.53;59.28;97718.73;1744461;82;20923;-61
2022/08/27 04:56:36;;;;;;;7.62;4.10;;;;;;;17.56;59.31;97709.94;1752847;81;21225;-61
2022/08/27 04:59:04;;;;;;;12.78;4.03;;;;;;;17.61;59.14;97715.69;1752798;81;21406;-61
2022/08/27 05:01:31;;;;;;;8.70;3.75;;;;;;;17.65;59.20;97709.23;1750471;81;20991;-61
2022/08/27 05:03:58;;;;;;;8.20;3.75;;;;;;;17.70;59.16;97711.72;1747597;81;20880;-61
2022/08/27 05:06:24;;;;;;;11.40;3.85;;;;;;;17.77;59.13;97720.60;1751901;81;20935;-61
2022/08/27 05:08:51;;;;;;;12.35;4.17;;;;;;;17.82;59.29;97708.17;1749265;81;21300;-61
2022/08/27 05:11:19;;;;;;;13.28;4.75;;;;;;;17.89;59.23;97711.65;1752582;81;20900;-61
2022/08/27 05:13:47;;;;;;;9.03;3.95;;;;;;;17.96;59.39;97710.49;1753121;81;20923;-60
2022/08/27 05:16:18;;;;;;;13.10;4.12;;;;;;;18.00;59.55;97709.46;1747022;81;20960;-61
2022/08/27 05:18:45;;;;;;;8.90;3.87;;;;;;;18.07;59.61;97709.66;1750228;81;20948;-61
2022/08/27 05:21:24;;;;;;;13.08;4.12;;;;;;;18.13;59.41;97711.00;1741991;82;21258;-61
2022/08/27 05:23:51;;;;;;;9.55;3.70;;;;;;;18.20;59.25;97712.55;1740747;81;20920;-62
2022/08/27 05:26:18;;;;;;;10.68;3.80;;;;;;;18.29;59.00;97727.30;1748656;81;20868;-61
2022/08/27 05:28:44;;;;;;;13.22;4.08;;;;;;;18.36;58.95;97726.12;1747757;81;20948;-61
2022/08/27 05:31:12;;;;;;;12.00;4.25;;;;;;;18.44;58.67;97724.61;1749003;81;21128;-61
2022/08/27 05:33:39;;;;;;;9.98;3.70;;;;;;;18.51;58.56;97725.42;1744643;81;21200;-61
2022/08/27 05:36:06;;;;;;;11.40;4.17;;;;;;;18.58;58.45;97729.67;1750120;81;20952;-61
2022/08/27 05:38:33;;;;;;;16.10;4.10;;;;;;;18.66;58.27;97730.05;1743217;81;21063;-61
2022/08/27 05:41:09;;;;;;;13.08;4.03;;;;;;;18.75;57.69;97728.52;1743413;81;20963;-60
2022/08/27 05:43:36;;;;;;;6.80;3.85;;;;;;;18.82;57.56;97729.49;1752760;81;21427;-60
2022/08/27 05:46:06;;;;;;;11.12;3.95;;;;;;;18.91;57.61;97722.55;1750696;81;21233;-60
2022/08/27 05:48:34;;;;;;;18.23;4.20;;;;;;;19.00;57.43;97723.95;1693408;82;20984;-61
2022/08/27 05:51:11;;;;;;;16.37;4.55;;;;;;;19.10;57.23;97723.99;1705474;83;20990;-61
2022/08/27 05:53:38;;;;;;;10.35;3.95;;;;;;;19.18;56.79;97724.36;1698435;83;20920;-60
2022/08/27 05:56:12;;;;;;;15.58;3.98;;;;;;;19.26;56.56;97730.75;1686919;83;21529;-60
2022/08/27 06:01:23;;;;;;;16.97;4.20;;;;;;;19.44;56.03;97723.83;1685778;83;20920;-60
2022/08/27 06:03:51;;;;;;;10.35;4.12;;;;;;;19.52;55.90;97721.49;1692528;83;20907;-60
2022/08/27 06:06:18;;;;;;;14.20;4.20;;;;;;;19.59;55.85;97723.80;1699510;83;20904;-61
2022/08/27 06:08:46;;;;;;;12.73;3.83;;;;;;;19.68;55.87;97714.08;1692374;83;20876;-61
2022/08/27 06:11:13;;;;;;;14.47;4.00;;;;;;;19.77;55.57;97717.38;1685393;83;21238;-61
2022/08/27 06:13:40;;;;;;;11.45;4.12;;;;;;;19.84;55.43;97717.53;1687558;83;20908;-61
2022/08/27 06:16:15;;;;;;;7.22;3.75;;;;;;;19.91;55.41;97716.88;1685654;82;20936;-61
2022/08/27 06:18:43;;;;;;;14.65;4.05;;;;;;;19.99;55.16;97719.41;1689442;82;21451;-60
2022/08/27 06:21:10;;;;;;;9.55;3.47;;;;;;;20.09;55.11;97724.25;1697873;83;21085;-60
2022/08/27 06:23:37;;;;;;;13.38;3.75;;;;;;;20.18;54.67;97728.92;1693148;83;21209;-60
2022/08/27 06:26:10;;;;;;;17.77;4.60;;;;;;;20.29;54.46;97730.50;1693950;82;20869;-60
2022/08/27 06:28:40;;;;;;;9.73;3.75;;;;;;;20.38;54.25;97723.70;1688846;83;20912;-62
2022/08/27 06:31:12;;;;;;;10.05;3.35;;;;;;;20.49;53.96;97724.47;1743457;81;21395;-62
2022/08/27 06:33:39;;;;;;;11.35;4.05;;;;;;;20.58;53.82;97727.74;1752513;81;21026;-59
2022/08/27 06:36:09;;;;;;;12.93;3.95;;;;;;;20.68;53.57;97717.63;1753189;81;21245;-61
2022/08/27 06:38:36;;;;;;;13.30;3.85;;;;;;;20.79;53.08;97726.76;1752461;82;21058;-61
2022/08/27 06:41:04;;;;;;;9.10;4.30;;;;;;;20.90;52.58;97727.15;1737998;81;21513;-60
2022/08/27 06:43:35;;;;;;;7.03;3.40;;;;;;;20.98;52.00;97723.98;1742374;81;20944;-61
2022/08/27 06:46:04;;;;;;;10.10;3.45;;;;;;;21.09;52.66;97729.05;1752622;81;21438;-61
2022/08/27 06:48:31;;;;;;;11.97;3.67;;;;;;;21.20;52.32;97725.14;1749602;81;21233;-61
2022/08/27 06:50:57;;;;;;;12.00;3.67;;;;;;;21.30;51.91;97730.73;1747844;81;21441;-60
2022/08/27 06:53:24;;;;;;;8.55;3.52;;;;;;;21.39;51.63;97732.63;1744249;81;21419;-61
2022/08/27 06:55:51;;;;;;;8.28;3.47;;;;;;;21.49;52.03;97733.36;1747875;81;20991;-61
2022/08/27 06:58:18;;;;;;;8.90;3.45;;;;;;;21.60;52.24;97735.66;1744123;81;20936;-61
2022/08/27 07:00:44;;;;;;;8.13;3.67;;;;;;;21.73;51.63;97731.58;1748038;81;21244;-60
2022/08/27 07:03:11;;;;;;;13.00;3.95;;;;;;;21.86;51.19;97732.74;1743065;81;20853;-60
2022/08/27 07:05:39;;;;;;;11.15;3.85;;;;;;;21.94;50.76;97730.30;1740552;82;21083;-61
2022/08/27 07:08:06;;;;;;;8.80;3.55;;;;;;;22.03;50.68;97726.71;1747321;81;20912;-60
2022/08/27 07:10:33;;;;;;;12.98;4.25;;;;;;;22.13;50.32;97728.22;1752412;81;21430;-60
2022/08/27 07:13:00;;;;;;;12.40;4.00;;;;;;;22.22;49.64;97725.19;1750087;81;21278;-61
2022/08/27 07:15:26;;;;;;;7.37;3.33;;;;;;;22.28;49.13;97725.08;1743487;81;20907;-61
2022/08/27 07:17:53;;;;;;;8.78;3.60;;;;;;;22.36;48.67;97723.98;1752611;82;20932;-61
2022/08/27 07:20:20;;;;;;;16.50;4.40;;;;;;;22.47;48.77;97720.78;1748375;81;21027;-61
2022/08/27 07:22:47;;;;;;;10.05;4.17;;;;;;;22.57;47.83;97714.66;1745791;81;20856;-61
2022/08/27 07:25:19;;;;;;;14.78;4.72;;;;;;;22.70;47.52;97723.41;1746237;81;21241;-60
2022/08/27 07:33:06;;;;;;;16.30;4.15;;;;;;;23.00;46.00;97723.48;1747701;81;20968;-61
2022/08/27 07:35:32;;;;;;;15.85;4.30;;;;;;;23.14;45.95;97726.33;1752402;81;21039;-60
2022/08/27 07:37:59;;;;;;;14.58;3.90;;;;;;;23.26;45.93;97721.16;1748685;81;21241;-61
2022/08/27 07:40:25;;;;;;;13.98;4.33;;;;;;;23.38;45.65;97722.25;1752278;81;20911;-61
2022/08/27 07:45:46;;;;;;;9.50;3.25;;;;;;;23.61;43.06;97719.27;1750203;81;20936;-60
2022/08/27 07:48:15;;;;;;;9.78;3.70;;;;;;;23.74;43.20;97723.25;1751768;81;20915;-61
2022/08/27 07:50:42;;;;;;;9.68;3.17;;;;;;;23.85;43.17;97721.35;1745731;81;21181;-60
2022/08/27 07:53:09;;;;;;;10.35;3.25;;;;;;;23.95;42.96;97722.58;1746872;81;20931;-61
2022/08/27 07:55:37;;;;;;;12.60;3.35;;;;;;;24.02;42.15;97720.66;1752424;82;21243;-61
2022/08/27 07:58:04;;;;;;;10.23;2.90;;;;;;;24.18;41.68;97710.20;1752487;82;20979;-61
2022/08/27 08:00:32;;;;;;;11.25;3.10;;;;;;;24.18;41.68;97710.20;1752045;81;20951;-61
2022/08/27 08:02:58;;;;;;;8.78;2.75;;;;;;;24.29;41.74;97709.64;1746036;81;21246;-61
2022/08/27 08:05:25;;;;;;;11.45;3.05;;;;;;;24.41;41.50;97708.50;1751196;81;20987;-61
2022/08/27 08:07:52;;;;;;;8.53;2.95;;;;;;;24.53;41.81;97711.45;1744278;81;21018;-61
2022/08/27 08:10:25;;;;;;;6.42;3.27;;;;;;;24.63;41.11;97710.70;1737641;81;20861;-61
2022/08/27 08:12:51;;;;;;;11.03;2.92;;;;;;;24.75;41.25;97714.44;1738622;81;20995;-61
2022/08/27 08:15:18;;;;;;;11.73;3.40;;;;;;;24.86;41.39;97715.25;1744562;81;21229;-60
2022/08/27 08:17:47;;;;;;;8.10;3.10;;;;;;;24.95;41.33;97717.02;1748009;81;20912;-60
2022/08/27 08:20:15;;;;;;;7.05;3.12;;;;;;;25.03;40.95;97710.38;1744099;81;20940;-60
2022/08/27 08:22:42;;;;;;;8.33;3.02;;;;;;;25.12;40.24;97714.30;1749568;81;20987;-61
2022/08/27 08:25:09;;;;;;;6.50;2.70;;;;;;;25.30;40.50;97714.27;1740774;81;20984;-61
2022/08/27 08:27:37;;;;;;;10.18;3.05;;;;;;;25.30;40.50;97714.27;1744411;81;20995;-60
2022/08/27 08:30:04;;;;;;;9.10;2.95;;;;;;;25.37;38.89;97708.78;1743911;81;20912;-60
2022/08/27 08:32:32;;;;;;;8.43;3.10;;;;;;;25.44;39.52;97714.28;1742396;81;20865;-60
2022/08/27 08:34:59;;;;;;;6.25;2.85;;;;;;;25.50;39.25;97709.98;1746451;81;20907;-61
2022/08/27 08:37:26;;;;;;;13.00;3.35;;;;;;;25.55;39.56;97708.22;1749828;81;20987;-61
2022/08/27 08:39:53;;;;;;;6.50;3.25;;;;;;;25.60;39.93;97711.90;1745597;82;21520;-61
2022/08/27 08:42:25;;;;;;;8.63;3.10;;;;;;;25.64;39.36;97710.53;1752324;81;20990;-60
2022/08/27 08:44:52;;;;;;;15.98;3.92;;;;;;;25.67;39.03;97711.88;1746084;81;21546;-62
2022/08/27 08:47:23;;;;;;;8.48;2.90;;;;;;;25.67;38.38;97710.52;1736881;81;21635;-60
2022/08/27 08:50:09;;;;;;;9.78;3.72;;;;;;;25.66;37.71;97714.45;1749987;81;20861;-61
2022/08/27 08:52:50;;;;;;;11.53;3.65;;;;;;;25.66;37.75;97710.34;1752490;81;21120;-62
2022/08/27 08:55:42;;;;;;;7.62;3.27;;;;;;;25.71;37.89;97707.19;1746504;81;21142;-63
2022/08/27 08:58:42;;;;;;;8.03;3.35;;;;;;;25.71;37.54;97711.89;1752575;81;21047;-62
2022/08/27 09:01:09;;;;;;;9.68;3.17;;;;;;;25.73;38.44;97707.58;1751985;81;20892;-62
2022/08/27 09:03:40;;;;;;;12.15;3.67;;;;;;;25.75;37.66;97703.84;1738606;81;20976;-61
2022/08/27 09:06:33;;;;;;;8.65;3.67;;;;;;;25.79;37.30;97703.23;1750613;81;22844;-61
2022/08/27 09:09:05;;;;;;;8.20;2.98;;;;;;;25.86;38.05;97703.03;1750005;82;20947;-61
2022/08/27 09:11:41;;;;;;;10.75;3.92;;;;;;;25.98;38.46;97706.72;1748240;81;21008;-62
2022/08/27 09:14:43;;;;;;;15.18;3.85;;;;;;;26.11;38.70;97703.16;1747415;81;20872;-61
2022/08/27 09:17:11;;;;;;;13.55;3.45;;;;;;;26.23;38.36;97702.72;1751986;82;21019;-62
2022/08/27 09:19:37;;;;;;;7.45;3.40;;;;;;;26.36;37.51;97697.53;1742725;81;21087;-61
2022/08/27 09:22:27;;;;;;;14.80;3.52;;;;;;;26.40;37.30;97695.57;1747500;81;20891;-62
2022/08/27 09:25:15;;;;;;;12.05;3.77;;;;;;;26.45;37.25;97695.12;1742163;82;20947;-62
2022/08/27 09:27:42;;;;;;;7.80;3.45;;;;;;;26.55;38.06;97694.88;1752429;81;20908;-62
2022/08/27 09:30:20;;;;;;;10.13;3.40;;;;;;;26.68;38.12;97695.98;1750040;81;20904;-61
2022/08/27 09:32:56;;;;;;;11.68;3.90;;;;;;;26.81;38.28;97695.12;1751469;81;21070;-61
2022/08/27 09:35:25;;;;;;;11.38;3.10;;;;;;;26.96;37.39;97695.22;1743551;81;20957;-61
2022/08/27 09:37:54;;;;;;;13.35;3.60;;;;;;;27.09;37.01;97689.98;1753097;81;20895;-60
2022/08/27 09:40:43;;;;;;;9.23;3.33;;;;;;;27.20;36.22;97694.82;1747275;82;21527;-62
2022/08/27 09:43:27;;;;;;;11.50;3.80;;;;;;;27.31;35.56;97690.58;1742091;81;21451;-61
2022/08/27 09:45:55;;;;;;;7.92;3.02;;;;;;;27.41;35.14;97693.87;1742655;82;21134;-61
2022/08/27 09:48:29;;;;;;;9.08;3.10;;;;;;;27.49;34.94;97686.50;1740207;82;20944;-62
2022/08/27 09:51:09;;;;;;;8.30;3.65;;;;;;;27.59;34.56;97688.95;1738307;82;21433;-60
2022/08/27 09:53:54;;;;;;;13.13;3.40;;;;;;;27.63;34.19;97686.36;1743570;81;20904;-62
2022/08/27 09:56:27;;;;;;;19.07;3.72;;;;;;;27.68;34.29;97678.24;1751117;81;20947;-63
2022/08/27 09:59:00;;;;;;;10.15;3.25;;;;;;;27.71;33.93;97689.81;1737779;82;21963;-62
2022/08/27 10:01:30;;;;;;;10.63;3.00;;;;;;;27.74;34.29;97680.75;1746299;81;20981;-62
2022/08/27 10:04:13;;;;;;;11.48;3.25;;;;;;;27.78;34.11;97682.86;1752573;81;21422;-61
2022/08/27 10:06:48;;;;;;;10.88;3.50;;;;;;;27.85;34.01;97688.28;1747672;81;21592;-61
2022/08/27 10:09:27;;;;;;;11.68;3.45;;;;;;;27.92;34.55;97684.06;1706078;83;20952;-63
2022/08/27 10:12:03;;;;;;;11.10;3.52;;;;;;;28.01;34.00;97685.75;1702412;84;22048;-61
2022/08/27 10:14:35;;;;;;;6.45;3.27;;;;;;;28.08;33.96;97680.16;1693070;83;21083;-61
2022/08/27 10:17:33;;;;;;;15.28;3.47;;;;;;;28.14;34.37;97679.90;1698504;83;20904;-61
2022/08/27 10:20:25;;;;;;;11.70;3.10;;;;;;;28.21;34.01;97677.64;1692331;83;21026;-61
2022/08/27 10:23:15;;;;;;;10.40;3.40;;;;;;;28.24;32.90;97680.95;1685948;83;20955;-60
2022/08/27 10:26:18;;;;;;;11.80;3.22;;;;;;;28.22;33.10;97681.35;1692892;83;21255;-62
2022/08/27 10:29:08;;;;;;;9.65;3.55;;;;;;;28.23;33.55;97684.30;1683643;83;20957;-61
2022/08/27 10:32:14;;;;;;;9.98;3.17;;;;;;;28.27;34.11;97685.02;1679491;85;20907;-61
2022/08/27 10:35:15;;;;;;;8.95;3.30;;;;;;;28.31;33.60;97679.48;1689895;83;21427;-61
2022/08/27 10:38:14;;;;;;;14.68;3.35;;;;;;;28.30;34.61;97684.20;1690504;83;20923;-61
2022/08/27 10:41:04;;;;;;;12.65;3.55;;;;;;;28.35;34.20;97683.75;1700370;81;21242;-61
2022/08/27 10:44:09;;;;;;;13.78;3.30;;;;;;;28.37;33.85;97684.11;1698944;83;20895;-61
2022/08/27 10:47:19;;;;;;;12.00;3.50;;;;;;;28.32;33.72;97683.19;1693585;83;20916;-60
2022/08/27 10:50:03;;;;;;;15.72;3.15;;;;;;;28.34;34.38;97679.42;1682682;83;20971;-61
2022/08/27 10:52:44;;;;;;;9.13;3.40;;;;;;;28.45;33.42;97673.16;1685305;83;21037;-61
2022/08/27 10:55:22;;;;;;;9.30;3.08;;;;;;;28.44;33.81;97682.63;1702607;83;21087;-61
2022/08/27 10:57:57;;;;;;;10.98;3.70;;;;;;;28.48;34.01;97672.33;1690035;82;20868;-60
2022/08/27 11:00:24;;;;;;;8.98;3.35;;;;;;;28.57;33.71;97682.83;1694335;83;20979;-59
2022/08/27 11:03:08;;;;;;;8.98;3.40;;;;;;;28.67;33.26;97670.12;1699838;83;20983;-60
2022/08/27 11:05:45;;;;;;;10.30;3.22;;;;;;;28.78;33.61;97674.89;1680066;85;20986;-60
2022/08/27 11:08:28;;;;;;;8.03;3.47;;;;;;;28.87;33.62;97675.13;1692011;83;21179;-61
2022/08/27 11:11:00;;;;;;;10.13;4.20;;;;;;;28.95;33.73;97675.97;1709179;83;21383;-60
2022/08/27 11:13:39;;;;;;;10.15;3.40;;;;;;;29.07;33.98;97679.52;1695852;83;20912;-61
2022/08/27 11:16:24;;;;;;;10.88;2.85;;;;;;;29.21;33.20;97674.98;1688615;83;21513;-61
2022/08/27 11:19:15;;;;;;;9.93;3.35;;;;;;;29.29;31.96;97677.20;1679940;85;21111;-62
2022/08/27 11:22:07;;;;;;;10.55;3.15;;;;;;;29.35;32.10;97676.89;1752665;81;21747;-62
2022/08/27 11:25:01;;;;;;;8.15;3.10;;;;;;;29.40;32.24;97677.79;1749526;81;21054;-62
2022/08/27 11:27:30;;;;;;;9.93;3.58;;;;;;;29.44;31.70;97681.25;1743909;81;20927;-60
2022/08/27 11:30:08;;;;;;;10.98;3.35;;;;;;;29.54;32.65;97679.50;1749812;81;20946;-60
2022/08/27 11:32:50;;;;;;;14.83;3.17;;;;;;;29.69;32.37;97678.83;1742203;82;20961;-61
2022/08/27 11:35:27;;;;;;;7.33;2.92;;;;;;;29.85;31.33;97675.98;1746032;81;21302;-61
2022/08/27 11:38:09;;;;;;;10.38;3.20;;;;;;;29.98;31.26;97679.68;1752472;81;20975;-61
2022/08/27 11:40:47;;;;;;;10.45;3.47;;;;;;;30.09;31.26;97677.47;1745372;81;20903;-60
2022/08/27 11:43:17;;;;;;;9.58;2.90;;;;;;;30.25;31.58;97670.61;1748445;81;21003;-61
2022/08/27 11:45:58;;;;;;;12.58;2.95;;;;;;;30.46;31.29;97683.98;1752794;81;20973;-61
2022/08/27 11:48:31;;;;;;;10.48;2.80;;;;;;;30.63;29.75;97680.65;1727046;81;21257;-62
2022/08/27 11:51:10;;;;;;;11.78;2.83;;;;;;;30.70;29.14;97671.59;1749127;81;20943;-62
2022/08/27 11:53:40;;;;;;;11.73;3.58;;;;;;;30.77;29.33;97673.41;1743250;81;21014;-61
2022/08/27 11:56:14;;;;;;;10.50;2.80;;;;;;;30.88;29.05;97674.73;1748881;81;20991;-62
2022/08/27 11:58:42;;;;;;;11.23;2.80;;;;;;;30.97;28.94;97673.52;1749478;81;20936;-61
2022/08/27 12:01:26;;;;;;;7.20;2.90;;;;;;;31.08;28.30;97667.14;1736726;82;21116;-62
2022/08/27 12:04:24;;;;;;;9.05;2.83;;;;;;;31.19;28.12;97665.48;1745495;82;21489;-60
2022/08/27 12:07:16;;;;;;;8.88;2.75;;;;;;;31.29;28.66;97663.05;1743744;81;21403;-62